createdAt,value
2017-11-24T00:00:27.024Z,5.41
2017-11-24T00:02:54.637Z,5.36
2017-11-24T00:05:22.306Z,5.36
2017-11-24T00:07:50.022Z,5.39
2017-11-24T00:10:17.686Z,5.46
2017-11-24T00:12:45.318Z,5.43
2017-11-24T00:15:13.047Z,5.46
2017-11-24T00:17:40.728Z,5.45
2017-11-24T00:20:08.436Z,5.45
2017-11-24T00:22:36.093Z,5.47
2017-11-24T00:25:03.712Z,5.45
2017-11-24T00:27:31.373Z,5.42
2017-11-24T00:29:59.980Z,5.34
2017-11-24T00:32:27.605Z,5.28
2017-11-24T00:34:55.277Z,5.24
2017-11-24T00:37:22.996Z,5.16
2017-11-24T00:39:50.677Z,5.04
2017-11-24T00:42:18.292Z,4.97
2017-11-24T00:44:45.949Z,4.93
2017-11-24T00:47:13.712Z,4.88
2017-11-24T00:49:41.376Z,4.76
2017-11-24T00:52:09.097Z,4.71
2017-11-24T00:54:36.713Z,4.66
2017-11-24T00:57:04.388Z,4.64
2017-11-24T00:59:32.120Z,4.62
2017-11-24T01:01:59.723Z,4.55
2017-11-24T01:04:27.478Z,4.44
2017-11-24T01:06:55.229Z,4.40
2017-11-24T01:09:22.839Z,4.33
2017-11-24T01:11:50.450Z,4.25
2017-11-24T01:14:18.176Z,4.18
2017-11-24T01:16:45.785Z,4.14
2017-11-24T01:19:13.388Z,4.12
2017-11-24T01:21:41.076Z,4.09
2017-11-24T01:24:08.685Z,4.05
2017-11-24T01:26:36.300Z,4.00
2017-11-24T01:29:04.076Z,3.96
2017-11-24T01:31:31.777Z,3.97
2017-11-24T01:33:59.380Z,3.99
2017-11-24T01:36:27.049Z,3.97
2017-11-24T01:38:54.660Z,3.95
2017-11-24T01:41:22.281Z,3.97
2017-11-24T01:43:49.993Z,3.98
2017-11-24T01:46:17.613Z,3.96
2017-11-24T01:48:45.232Z,3.96
2017-11-24T01:51:12.916Z,4.02
2017-11-24T01:53:40.524Z,4.12
2017-11-24T01:56:08.230Z,4.19
2017-11-24T01:58:35.917Z,4.27
2017-11-24T02:01:03.573Z,4.33
2017-11-24T02:03:31.208Z,4.36
2017-11-24T02:05:58.871Z,4.39
2017-11-24T02:08:26.600Z,4.45
2017-11-24T02:10:54.220Z,4.47
2017-11-24T02:13:21.939Z,4.48
2017-11-24T02:15:49.609Z,4.47
2017-11-24T02:18:17.216Z,4.58
2017-11-24T02:20:44.895Z,4.59
2017-11-24T02:23:12.608Z,4.67
2017-11-24T02:25:40.313Z,4.74
2017-11-24T02:28:08.192Z,4.81
2017-11-24T02:30:35.849Z,4.89
2017-11-24T02:33:03.540Z,4.89
2017-11-24T02:35:31.197Z,4.93
2017-11-24T02:37:58.817Z,4.88
2017-11-24T02:40:26.494Z,4.88
2017-11-24T02:42:54.156Z,4.90
2017-11-24T02:45:21.844Z,4.86
2017-11-24T02:47:49.459Z,4.86
2017-11-24T02:50:17.176Z,4.89
2017-11-24T02:52:44.833Z,4.83
2017-11-24T02:55:12.501Z,4.81
2017-11-24T02:57:40.200Z,4.85
2017-11-24T03:00:07.872Z,4.85
2017-11-24T03:02:35.540Z,4.83
2017-11-24T03:05:03.257Z,4.86
2017-11-24T03:07:30.920Z,4.86
2017-11-24T03:09:58.636Z,4.84
2017-11-24T03:12:26.356Z,4.88
2017-11-24T03:14:54.020Z,4.85
2017-11-24T03:17:21.635Z,4.79
2017-11-24T03:19:49.296Z,4.83
2017-11-24T03:22:16.968Z,4.79
2017-11-24T03:24:44.572Z,4.75
2017-11-24T03:27:12.264Z,4.71
2017-11-24T03:29:39.872Z,4.65
2017-11-24T03:32:07.544Z,4.63
2017-11-24T03:34:35.257Z,4.63
2017-11-24T03:37:02.871Z,4.54
2017-11-24T03:39:30.476Z,4.50
2017-11-24T03:41:58.147Z,4.48
2017-11-24T03:44:25.814Z,4.47
2017-11-24T03:46:53.494Z,4.43
2017-11-24T03:49:21.172Z,4.36
2017-11-24T03:51:48.781Z,4.34
2017-11-24T03:54:16.452Z,4.29
2017-11-24T03:56:44.110Z,4.25
2017-11-24T03:59:11.776Z,4.23
2017-11-24T04:01:39.496Z,4.18
2017-11-24T04:04:07.246Z,4.17
2017-11-24T04:06:34.865Z,4.10
2017-11-24T04:09:02.540Z,4.08
2017-11-24T04:11:30.272Z,4.06
2017-11-24T04:13:57.996Z,4.03
2017-11-24T04:16:25.676Z,4.04
2017-11-24T04:18:53.457Z,3.94
2017-11-24T04:21:21.112Z,3.98
2017-11-24T04:23:48.800Z,3.97
2017-11-24T04:26:16.549Z,4.04
2017-11-24T04:28:44.217Z,4.05
2017-11-24T04:31:11.829Z,4.02
2017-11-24T04:33:39.544Z,3.99
2017-11-24T04:36:07.164Z,4.05
2017-11-24T04:38:34.773Z,3.99
2017-11-24T04:41:02.468Z,4.02
2017-11-24T04:43:30.204Z,3.96
2017-11-24T04:45:57.819Z,3.98
2017-11-24T04:48:25.475Z,3.91
2017-11-24T04:50:53.080Z,3.87
2017-11-24T04:53:20.764Z,3.83
2017-11-24T04:55:48.420Z,3.80
2017-11-24T04:58:16.084Z,3.81
2017-11-24T05:00:43.761Z,3.75
2017-11-24T05:03:11.476Z,3.77
2017-11-24T05:05:39.088Z,3.74
2017-11-24T05:08:06.763Z,3.74
2017-11-24T05:10:34.490Z,3.77
2017-11-24T05:13:02.105Z,3.84
2017-11-24T05:15:29.715Z,3.81
2017-11-24T05:17:57.444Z,3.77
2017-11-24T05:20:25.136Z,3.80
2017-11-24T05:22:52.831Z,3.80
2017-11-24T05:25:20.590Z,3.79
2017-11-24T05:27:48.224Z,3.78
2017-11-24T05:30:15.890Z,3.81
2017-11-24T05:32:43.553Z,3.80
2017-11-24T05:35:11.160Z,3.82
2017-11-24T05:37:38.772Z,3.83
2017-11-24T05:40:06.483Z,3.83
2017-11-24T05:42:34.157Z,3.89
2017-11-24T05:45:01.820Z,3.98
2017-11-24T05:47:29.480Z,4.03
2017-11-24T05:49:57.080Z,4.09
2017-11-24T05:52:24.741Z,4.15
2017-11-24T05:54:52.457Z,4.10
2017-11-24T05:57:20.125Z,4.16
2017-11-24T05:59:47.784Z,4.17
2017-11-24T06:02:15.533Z,4.17
2017-11-24T06:04:43.132Z,4.26
2017-11-24T06:07:10.831Z,4.14
2017-11-24T06:09:38.504Z,4.19
2017-11-24T06:12:06.115Z,4.33
2017-11-24T06:14:33.740Z,4.34
2017-11-24T06:17:01.405Z,4.45
2017-11-24T06:19:29.032Z,4.44
2017-11-24T06:21:56.636Z,4.55
2017-11-24T06:24:24.300Z,4.65
2017-11-24T06:26:51.908Z,4.70
2017-11-24T06:29:19.512Z,4.75
2017-11-24T06:31:47.184Z,4.84
2017-11-24T06:34:14.792Z,4.89
2017-11-24T06:36:42.454Z,4.96
2017-11-24T06:39:10.223Z,4.89
2017-11-24T06:41:37.832Z,5.05
2017-11-24T06:44:05.437Z,5.11
2017-11-24T06:46:33.083Z,5.01
2017-11-24T06:49:00.691Z,5.07
2017-11-24T06:51:28.299Z,5.18
2017-11-24T06:53:56.032Z,5.21
2017-11-24T06:56:23.632Z,5.13
2017-11-24T06:58:51.236Z,5.25
2017-11-24T07:01:18.903Z,5.33
2017-11-24T07:03:46.564Z,5.46
2017-11-24T07:06:14.167Z,5.67
2017-11-24T07:08:41.832Z,5.81
2017-11-24T07:11:09.468Z,5.88
2017-11-24T07:13:37.074Z,5.82
2017-11-24T07:16:04.846Z,5.87
2017-11-24T07:18:32.528Z,6.02
2017-11-24T07:21:00.149Z,6.05
2017-11-24T07:23:27.808Z,6.14
2017-11-24T07:25:55.420Z,6.26
2017-11-24T07:28:23.028Z,6.31
2017-11-24T07:30:50.760Z,6.28
2017-11-24T07:33:18.499Z,6.32
2017-11-24T07:35:46.104Z,6.49
2017-11-24T07:38:14.143Z,6.50
2017-11-24T07:40:41.765Z,6.41
2017-11-24T07:43:09.424Z,6.30
2017-11-24T07:45:37.154Z,6.29
2017-11-24T07:48:04.764Z,6.38
2017-11-24T07:50:32.376Z,6.52
2017-11-24T07:53:00.093Z,6.80
2017-11-24T07:55:27.765Z,6.93
2017-11-24T07:57:55.372Z,7.07
2017-11-24T08:00:23.036Z,7.08
2017-11-24T08:02:50.702Z,6.98
2017-11-24T08:05:18.311Z,7.15
2017-11-24T08:07:45.977Z,7.23
2017-11-24T08:10:13.588Z,7.45
2017-11-24T08:12:41.192Z,7.49
2017-11-24T08:15:08.852Z,7.67
2017-11-24T08:17:36.452Z,7.83
2017-11-24T08:20:04.116Z,7.85
2017-11-24T08:22:31.782Z,7.96
2017-11-24T08:24:59.399Z,7.91
2017-11-24T08:27:27.076Z,7.81
2017-11-24T08:29:54.797Z,8.02
2017-11-24T08:32:22.407Z,8.18
2017-11-24T08:34:50.017Z,8.16
2017-11-24T08:37:17.732Z,8.31
2017-11-24T08:39:45.418Z,8.51
2017-11-24T08:42:13.027Z,8.39
2017-11-24T08:44:40.756Z,8.40
2017-11-24T08:47:13.968Z,8.33
2017-11-24T08:49:47.603Z,8.06
2017-11-24T08:52:15.208Z,8.14
2017-11-24T08:54:42.882Z,8.29
2017-11-24T08:57:10.550Z,8.16
2017-11-24T08:59:38.176Z,8.31
2017-11-24T09:02:05.805Z,8.62
2017-11-24T09:04:33.464Z,8.80
2017-11-24T09:07:01.079Z,8.85
2017-11-24T09:09:28.686Z,8.85
2017-11-24T09:11:56.395Z,8.88
2017-11-24T09:14:24.057Z,8.85
2017-11-24T09:16:51.663Z,8.99
2017-11-24T09:19:19.389Z,8.96
2017-11-24T09:21:47.064Z,8.89
2017-11-24T09:24:14.676Z,9.02
2017-11-24T09:26:42.390Z,9.23
2017-11-24T09:29:10.006Z,9.55
2017-11-24T09:31:37.656Z,9.59
2017-11-24T09:34:05.365Z,9.53
2017-11-24T09:36:32.984Z,9.34
2017-11-24T09:39:00.604Z,9.33
2017-11-24T09:41:28.361Z,9.33
2017-11-24T09:43:56.000Z,9.14
2017-11-24T09:46:23.687Z,9.02
2017-11-24T09:48:51.362Z,8.55
2017-11-24T09:51:18.972Z,8.64
2017-11-24T09:53:46.640Z,8.54
2017-11-24T09:56:14.412Z,8.74
2017-11-24T09:58:42.077Z,8.81
2017-11-24T10:01:09.745Z,8.86
2017-11-24T10:03:37.412Z,9.15
2017-11-24T10:06:05.072Z,9.41
2017-11-24T10:08:32.753Z,9.61
2017-11-24T10:11:00.488Z,9.59
2017-11-24T10:13:28.153Z,9.90
2017-11-24T10:15:55.809Z,10.03
2017-11-24T10:18:23.499Z,9.83
2017-11-24T10:20:56.708Z,10.13
2017-11-24T10:23:24.403Z,10.47
2017-11-24T10:25:52.077Z,10.57
2017-11-24T10:28:19.684Z,10.77
2017-11-24T10:30:47.338Z,10.70
2017-11-24T10:33:14.948Z,10.48
2017-11-24T10:35:42.559Z,10.40
2017-11-24T10:38:10.268Z,9.96
2017-11-24T10:40:37.932Z,9.99
2017-11-24T10:43:05.627Z,9.91
2017-11-24T10:45:33.331Z,9.76
2017-11-24T10:48:00.936Z,9.93
2017-11-24T10:50:28.595Z,9.80
2017-11-24T10:52:56.320Z,9.58
2017-11-24T10:55:23.920Z,9.42
2017-11-24T10:57:51.575Z,9.48
2017-11-24T11:00:19.285Z,9.70
2017-11-24T11:02:46.948Z,9.39
2017-11-24T11:05:14.548Z,8.90
2017-11-24T11:07:42.302Z,9.00
2017-11-24T11:10:09.961Z,9.04
2017-11-24T11:12:37.627Z,8.62
2017-11-24T11:15:05.333Z,8.96
2017-11-24T11:17:32.991Z,9.41
2017-11-24T11:20:00.653Z,9.58
2017-11-24T11:22:28.308Z,9.77
2017-11-24T11:24:55.969Z,9.78
2017-11-24T11:27:23.635Z,10.04
2017-11-24T11:29:51.311Z,10.11
2017-11-24T11:32:18.932Z,9.96
2017-11-24T11:34:46.651Z,9.69
2017-11-24T11:37:14.349Z,9.94
2017-11-24T11:39:42.008Z,9.67
2017-11-24T11:42:09.616Z,9.79
2017-11-24T11:44:37.272Z,9.80
2017-11-24T11:47:04.937Z,9.76
2017-11-24T11:49:32.581Z,10.25
2017-11-24T11:52:00.252Z,9.78
2017-11-24T11:54:27.936Z,9.58
2017-11-24T11:56:55.548Z,9.54
2017-11-24T11:59:23.214Z,9.60
2017-11-24T12:01:50.892Z,9.69
2017-11-24T12:04:18.495Z,9.85
2017-11-24T12:06:46.165Z,9.92
2017-11-24T12:09:13.772Z,9.99
2017-11-24T12:11:41.443Z,9.76
2017-11-24T12:14:09.152Z,9.72
2017-11-24T12:16:36.760Z,10.03
2017-11-24T12:19:04.421Z,9.44
2017-11-24T12:21:32.080Z,9.24
2017-11-24T12:23:59.743Z,9.24
2017-11-24T12:26:27.409Z,8.88
2017-11-24T12:28:55.059Z,9.02
2017-11-24T12:31:22.724Z,9.11
2017-11-24T12:33:50.344Z,8.88
2017-11-24T12:36:18.087Z,9.01
2017-11-24T12:38:45.744Z,9.05
2017-11-24T12:41:13.348Z,9.27
2017-11-24T12:43:41.012Z,9.49
2017-11-24T12:46:08.612Z,9.58
2017-11-24T12:48:36.216Z,9.56
2017-11-24T12:51:03.868Z,9.43
2017-11-24T12:53:31.577Z,9.17
2017-11-24T12:55:59.200Z,8.97
2017-11-24T12:58:26.866Z,9.01
2017-11-24T13:00:54.469Z,9.05
2017-11-24T13:03:22.076Z,9.10
2017-11-24T13:05:49.740Z,9.10
2017-11-24T13:08:17.336Z,8.91
2017-11-24T13:10:44.945Z,8.55
2017-11-24T13:13:12.592Z,8.18
2017-11-24T13:15:40.212Z,7.95
2017-11-24T13:18:07.872Z,8.19
2017-11-24T13:20:35.525Z,8.39
2017-11-24T13:23:03.124Z,8.39
2017-11-24T13:25:30.788Z,8.47
2017-11-24T13:27:58.524Z,8.46
2017-11-24T13:30:26.139Z,8.61
2017-11-24T13:32:53.744Z,8.64
2017-11-24T13:35:21.468Z,8.60
2017-11-24T13:37:49.072Z,8.53
2017-11-24T13:40:16.680Z,8.51
2017-11-24T13:42:44.372Z,8.45
2017-11-24T13:45:12.048Z,8.39
2017-11-24T13:47:39.656Z,8.40
2017-11-24T13:50:07.379Z,8.39
2017-11-24T13:52:35.092Z,8.42
2017-11-24T13:55:02.693Z,8.42
2017-11-24T13:57:30.347Z,8.43
2017-11-24T13:59:58.012Z,8.40
2017-11-24T14:02:25.680Z,8.44
2017-11-24T14:04:53.460Z,8.55
2017-11-24T14:07:21.127Z,8.55
2017-11-24T14:09:48.732Z,8.39
2017-11-24T14:12:16.503Z,8.32
2017-11-24T14:14:44.173Z,8.22
2017-11-24T14:17:11.779Z,7.99
2017-11-24T14:19:39.508Z,8.06
2017-11-24T14:22:07.113Z,7.94
2017-11-24T14:24:34.776Z,7.80
2017-11-24T14:27:02.461Z,7.76
2017-11-24T14:29:30.068Z,7.84
2017-11-24T14:31:57.680Z,7.91
2017-11-24T14:34:25.344Z,7.78
2017-11-24T14:36:52.949Z,7.81
2017-11-24T14:39:20.617Z,7.57
2017-11-24T14:41:48.276Z,7.39
2017-11-24T14:44:15.891Z,7.29
2017-11-24T14:46:43.573Z,7.40
2017-11-24T14:49:11.296Z,7.34
2017-11-24T14:51:39.420Z,7.34
2017-11-24T14:54:07.110Z,7.33
2017-11-24T14:56:34.768Z,7.14
2017-11-24T14:59:02.441Z,7.05
2017-11-24T15:01:30.116Z,7.10
2017-11-24T15:03:57.787Z,7.14
2017-11-24T15:06:25.395Z,7.16
2017-11-24T15:08:53.009Z,7.12
2017-11-24T15:11:20.679Z,7.02
2017-11-24T15:13:48.285Z,6.94
2017-11-24T15:16:15.905Z,7.05
2017-11-24T15:18:43.563Z,7.08
2017-11-24T15:21:11.190Z,7.09
2017-11-24T15:23:38.928Z,7.10
2017-11-24T15:26:06.644Z,7.14
2017-11-24T15:28:34.252Z,7.14
2017-11-24T15:31:01.880Z,7.12
2017-11-24T15:33:29.543Z,7.09
2017-11-24T15:35:57.214Z,7.10
2017-11-24T15:38:24.820Z,7.00
2017-11-24T15:40:52.549Z,6.96
2017-11-24T15:43:20.276Z,6.97
2017-11-24T15:45:47.905Z,7.00
2017-11-24T15:48:15.640Z,7.02
2017-11-24T15:50:43.313Z,7.05
2017-11-24T15:53:10.921Z,7.03
2017-11-24T15:55:38.577Z,7.09
2017-11-24T15:58:06.180Z,7.15
2017-11-24T16:00:33.782Z,7.12
2017-11-24T16:03:01.505Z,7.12
2017-11-24T16:05:29.115Z,7.10
2017-11-24T16:07:56.724Z,7.12
2017-11-24T16:10:24.455Z,7.05
2017-11-24T16:12:52.122Z,6.94
2017-11-24T16:15:19.788Z,6.89
2017-11-24T16:17:47.541Z,6.90
2017-11-24T16:20:15.158Z,6.93
2017-11-24T16:22:42.771Z,6.91
2017-11-24T16:25:10.428Z,6.99
2017-11-24T16:27:38.037Z,7.04
2017-11-24T16:30:05.650Z,7.00
2017-11-24T16:32:33.369Z,6.89
2017-11-24T16:35:01.005Z,6.91
2017-11-24T16:37:28.615Z,6.88
2017-11-24T16:39:56.308Z,6.80
2017-11-24T16:42:23.920Z,6.70
2017-11-24T16:44:51.589Z,6.77
2017-11-24T16:47:19.276Z,6.84
2017-11-24T16:49:46.884Z,6.83
2017-11-24T16:52:14.573Z,6.71
2017-11-24T16:54:42.354Z,6.72
2017-11-24T16:57:10.900Z,6.67
2017-11-24T16:59:38.517Z,6.59
2017-11-24T17:02:06.240Z,6.63
2017-11-24T17:04:33.859Z,6.66
2017-11-24T17:07:01.530Z,6.71
2017-11-24T17:09:29.203Z,6.73
2017-11-24T17:11:56.820Z,6.65
2017-11-24T17:14:24.444Z,6.66
2017-11-24T17:16:52.160Z,6.67
2017-11-24T17:19:19.764Z,6.57
2017-11-24T17:21:47.452Z,6.46
2017-11-24T17:24:15.148Z,6.44
2017-11-24T17:26:42.777Z,6.46
2017-11-24T17:29:10.400Z,6.49
2017-11-24T17:31:38.077Z,6.47
2017-11-24T17:34:05.700Z,6.44
2017-11-24T17:36:33.316Z,6.48
2017-11-24T17:39:01.035Z,6.47
2017-11-24T17:41:28.699Z,6.39
2017-11-24T17:43:56.393Z,6.40
2017-11-24T17:46:24.153Z,6.47
2017-11-24T17:48:51.775Z,6.40
2017-11-24T17:51:19.399Z,6.52
2017-11-24T17:53:47.119Z,6.44
2017-11-24T17:56:14.732Z,6.39
2017-11-24T17:58:42.348Z,6.35
2017-11-24T18:01:10.012Z,6.38
2017-11-24T18:03:37.640Z,6.41
2017-11-24T18:06:05.253Z,6.44
2017-11-24T18:08:32.940Z,6.45
2017-11-24T18:11:00.548Z,6.49
2017-11-24T18:13:28.156Z,6.51
2017-11-24T18:15:55.871Z,6.52
2017-11-24T18:18:23.552Z,6.46
2017-11-24T18:20:51.216Z,6.41
2017-11-24T18:23:18.993Z,6.36
2017-11-24T18:25:46.718Z,6.27
2017-11-24T18:28:14.467Z,6.28
2017-11-24T18:30:42.202Z,6.28
2017-11-24T18:33:09.868Z,6.29
2017-11-24T18:35:37.516Z,6.31
2017-11-24T18:38:05.270Z,6.33
2017-11-24T18:40:32.948Z,6.35
2017-11-24T18:43:00.626Z,6.26
2017-11-24T18:45:28.361Z,6.13
2017-11-24T18:47:56.081Z,6.14
2017-11-24T18:50:23.755Z,6.09
2017-11-24T18:52:51.525Z,6.15
2017-11-24T18:55:19.193Z,6.20
2017-11-24T18:57:46.816Z,6.18
2017-11-24T19:00:14.536Z,6.18
2017-11-24T19:02:42.201Z,6.18
2017-11-24T19:05:09.808Z,6.10
2017-11-24T19:07:37.535Z,6.02
2017-11-24T19:10:05.148Z,5.97
2017-11-24T19:12:32.808Z,5.95
2017-11-24T19:15:00.532Z,5.99
2017-11-24T19:17:28.136Z,6.02
2017-11-24T19:19:55.768Z,6.08
2017-11-24T19:22:23.491Z,6.04
2017-11-24T19:24:51.100Z,6.00
2017-11-24T19:27:18.829Z,6.00
2017-11-24T19:29:46.500Z,5.92
2017-11-24T19:32:14.211Z,5.89
2017-11-24T19:34:41.905Z,5.87
2017-11-24T19:37:09.582Z,5.91
2017-11-24T19:39:37.192Z,5.96
2017-11-24T19:42:04.904Z,6.01
2017-11-24T19:44:32.591Z,6.06
2017-11-24T19:47:00.259Z,6.08
2017-11-24T19:49:27.868Z,6.09
2017-11-24T19:51:55.592Z,6.08
2017-11-24T19:54:23.311Z,6.07
2017-11-24T19:56:50.938Z,6.03
2017-11-24T19:59:18.604Z,6.01
2017-11-24T20:01:46.335Z,5.92
2017-11-24T20:04:13.948Z,5.93
2017-11-24T20:06:41.603Z,5.95
2017-11-24T20:09:09.216Z,5.94
2017-11-24T20:11:36.924Z,5.97
2017-11-24T20:14:04.667Z,5.95
2017-11-24T20:16:32.273Z,5.97
2017-11-24T20:18:59.891Z,5.91
2017-11-24T20:21:27.612Z,5.86
2017-11-24T20:23:55.225Z,5.94
2017-11-24T20:26:22.850Z,5.97
2017-11-24T20:28:50.504Z,6.02
2017-11-24T20:31:18.108Z,6.11
2017-11-24T20:33:45.710Z,6.02
2017-11-24T20:36:13.388Z,6.02
2017-11-24T20:38:41.003Z,5.96
2017-11-24T20:41:08.609Z,5.95
2017-11-24T20:43:36.355Z,5.93
2017-11-24T20:46:04.020Z,6.01
2017-11-24T20:48:31.648Z,6.05
2017-11-24T20:50:59.303Z,6.06
2017-11-24T20:53:26.972Z,6.08
2017-11-24T20:55:54.636Z,6.12
2017-11-24T20:58:22.356Z,6.15
2017-11-24T21:00:49.973Z,6.12
2017-11-24T21:03:17.580Z,6.06
2017-11-24T21:05:45.300Z,6.08
2017-11-24T21:08:12.980Z,6.06
2017-11-24T21:10:40.640Z,6.00
2017-11-24T21:13:08.387Z,5.97
2017-11-24T21:15:36.062Z,5.94
2017-11-24T21:18:03.723Z,5.95
2017-11-24T21:20:31.484Z,5.92
2017-11-24T21:22:59.124Z,5.98
2017-11-24T21:25:26.747Z,6.04
2017-11-24T21:27:54.505Z,6.08
2017-11-24T21:30:22.108Z,6.13
2017-11-24T21:32:49.781Z,6.15
2017-11-24T21:35:17.440Z,6.18
2017-11-24T21:37:45.043Z,6.20
2017-11-24T21:40:12.644Z,6.07
2017-11-24T21:42:40.301Z,6.00
2017-11-24T21:45:07.912Z,6.00
2017-11-24T21:47:35.526Z,5.95
2017-11-24T21:50:03.183Z,5.95
2017-11-24T21:52:30.852Z,5.93
2017-11-24T21:54:58.558Z,5.98
2017-11-24T21:57:26.208Z,5.98
2017-11-24T21:59:53.872Z,6.01
2017-11-24T22:02:21.545Z,5.89
2017-11-24T22:04:49.200Z,5.96
2017-11-24T22:07:16.874Z,6.03
2017-11-24T22:09:44.480Z,6.09
2017-11-24T22:12:12.129Z,6.14
2017-11-24T22:14:39.796Z,6.15
2017-11-24T22:17:07.409Z,6.19
2017-11-24T22:19:35.072Z,6.16
2017-11-24T22:22:02.739Z,6.19
2017-11-24T22:24:30.350Z,6.11
2017-11-24T22:26:58.047Z,6.15
2017-11-24T22:29:25.711Z,6.13
2017-11-24T22:31:53.376Z,6.00
2017-11-24T22:34:21.096Z,5.90
2017-11-24T22:36:48.754Z,5.85
2017-11-24T22:39:16.420Z,5.83
2017-11-24T22:41:44.087Z,5.79
2017-11-24T22:44:11.757Z,5.88
2017-11-24T22:46:39.424Z,5.79
2017-11-24T22:49:07.084Z,5.87
2017-11-24T22:51:34.689Z,5.88
2017-11-24T22:54:02.292Z,5.91
2017-11-24T22:56:29.944Z,5.93
2017-11-24T22:58:57.608Z,5.95
2017-11-24T23:01:25.302Z,5.90
2017-11-24T23:03:53.014Z,5.94
2017-11-24T23:06:20.620Z,5.91
2017-11-24T23:08:48.237Z,5.94
2017-11-24T23:11:15.979Z,5.94
2017-11-24T23:13:43.584Z,5.95
2017-11-24T23:16:11.244Z,5.91
2017-11-24T23:18:38.900Z,5.99
2017-11-24T23:21:06.508Z,6.06
2017-11-24T23:23:34.124Z,6.03
2017-11-24T23:26:01.804Z,6.05
2017-11-24T23:28:29.415Z,6.01
2017-11-24T23:30:57.081Z,6.03
2017-11-24T23:33:24.776Z,6.04
2017-11-24T23:35:52.440Z,5.96
2017-11-24T23:38:20.052Z,5.98
2017-11-24T23:40:47.720Z,6.01
2017-11-24T23:43:15.380Z,6.03
2017-11-24T23:45:42.979Z,6.04
2017-11-24T23:48:10.640Z,6.04
2017-11-24T23:50:38.239Z,6.10
2017-11-24T23:53:05.908Z,6.05
2017-11-24T23:55:33.614Z,5.96
2017-11-24T23:58:01.224Z,5.94
